Accueil
METAR-TAF:

METAR-TAF

Aéroports :

Army Air Corps Middle Wallop

Middle Wallop, Angleterre

latitude: 51-09N, longitude: 001-34W, altitude: 91 m

Observation

Le bulletin a été fait il y a 58 minutes, à 18:20 UTC
Vent 10 kt de nord/nord-ouest
Température 17°C
Humidité 59%
Pression 1014 hPa
Visibilité 10 km ou plus

METAR: EGVP 301820Z AUTO 33010KT 9999 FEW038/// OVC047/// 17/09 Q1014

Heure: 20:18 (19:18 UTC)

Prévision

Le bulletin a été fait il y a 2 heures et 39 minutes, à 16:39 UTC
Prévision valable du 30 à 18 UTC au 30 à 24 UTC
Vent 10 kt de nord/nord-ouest
Visibilité 10 km ou plus
Nuages épars à une hauteur de 3000 ft

TAF: EGVP 301639Z 3018/3024 33010KT 9999 SCT030

Observations et prévisions météorologiques de plus de 4000 aéroports (messages METAR et TAF).

Les stations disponibles sont représentées par des disques jaunes et rouges sur la carte.

Passer la souris dessus pour voir le nom de la station.

Cliquer dessus pour voir les observations et prévisions météorologiques.

Pour changer de carte: cliquez sur les boutons verts avec une croix noire pour zoomer, sur le bouton vert avec un tiret pour effectuer un zoom arrière, ou sur les flèches vertes pour les cartes adjacentes.


METAR-TAF: